Date,TemperatureHighF,TemperatureAvgF,TemperatureLowF,DewpointHighF,DewpointAvgF,DewpointLowF,HumidityHigh,HumidityAvg,HumidityLow,PressureMaxIn,PressureMinIn,WindSpeedMaxMPH,WindSpeedAvgMPH,GustSpeedMaxMPH,PrecipitationSumIn
2012-1-7,36.7,30.7,17.6,25.0,19.0,7.8,67,62,58,30.22,30.15,3,1,3,0.00
2012-1-8,32.4,30.4,24.7,20.5,18.7,14.1,64,61,59,30.26,30.22,5,1,5,0.00
2012-1-12,0.0,-1.0,-1.6,-6.4,-7.4,-7.9,74,74,74,30.28,30.27,3,1,3,0.00
2012-1-17,27.0,22.2,11.5,10.4,6.9,1.9,74,52,41,30.16,30.02,15,4,15,0.00
2012-1-18,42.8,36.8,24.8,19.7,16.6,11.4,58,44,34,29.92,29.75,15,3,15,0.00
2012-1-20,50.8,39.7,28.4,31.9,25.5,18.7,70,58,44,29.95,29.86,9,2,9,0.00
2012-1-22,41.4,39.1,34.0,14.3,12.5,11.6,40,33,30,29.96,29.93,8,5,8,0.00
2012-1-24,40.1,29.8,16.7,26.5,17.1,8.9,71,60,40,30.25,30.19,6,2,6,0.00
2012-1-25,53.6,32.0,16.6,30.0,18.5,9.1,75,60,36,30.23,30.05,16,4,16,0.00
2012-1-26,32.0,27.0,22.7,22.7,18.6,15.7,74,70,66,30.22,30.15,4,2,4,0.00
2012-1-27,35.3,28.8,14.8,16.9,8.7,1.3,68,45,24,30.34,30.27,16,4,16,0.00
2012-1-28,34.9,18.3,13.3,16.8,8.8,4.7,71,66,46,30.32,30.28,4,1,4,0.00
2012-1-30,52.2,37.1,22.7,28.6,20.4,13.2,81,53,31,30.05,29.89,17,3,17,0.00
2012-1-31,25.4,19.5,16.6,13.8,10.4,8.5,75,67,61,30.09,30.04,5,1,5,0.00
2012-2-2,30.6,30.6,30.6,23.2,22.7,22.4,74,72,72,30.35,30.33,2,1,2,0.00
2012-2-3,30.6,29.2,28.4,24.0,22.7,21.3,79,76,74,30.41,30.35,5,1,5,0.00
2012-2-4,28.4,21.1,16.6,17.1,12.2,9.1,72,69,62,30.43,30.41,5,1,5,0.00
2012-2-5,16.6,14.6,12.8,8.9,7.7,6.2,75,74,72,30.43,30.41,2,0,2,0.00
2012-2-9,46.3,30.7,20.2,23.8,16.6,11.7,71,57,39,30.27,30.23,8,1,10,0.00
2012-2-10,35.6,25.7,16.7,23.2,17.0,9.8,78,70,57,30.24,30.19,7,2,7,0.00
2012-2-11,32.8,29.8,24.7,20.0,18.1,14.9,67,61,57,30.29,30.17,3,1,3,0.00
2012-2-16,39.8,39.7,39.6,15.5,15.4,14.9,37,37,37,30.14,30.14,1,1,1,0.00
2012-2-26,41.0,34.7,25.0,13.7,9.3,6.1,60,36,28,30.12,30.05,7,2,7,0.00
2012-3-4,61.9,54.8,38.5,30.5,25.9,19.5,46,33,25,30.22,30.16,8,4,8,0.00
2012-3-5,31.9,25.1,22.7,25.8,19.2,16.6,80,78,77,30.10,30.08,2,0,2,0.00
2012-3-12,56.3,48.7,40.1,25.3,22.7,21.6,49,36,30,29.96,29.93,5,2,5,0.00
2012-3-13,64.1,52.3,39.1,25.3,23.0,19.9,52,33,22,29.95,29.80,14,7,14,0.00
2012-3-18,59.0,56.9,55.3,30.0,28.6,26.7,38,34,30,29.48,29.47,22,12,22,0.00
2012-3-25,52.4,47.8,46.4,34.3,33.1,32.4,59,57,50,30.07,30.07,4,2,4,0.00
2012-4-7,60.3,57.5,49.3,14.1,11.9,9.0,23,17,15,30.29,30.25,4,3,4,0.00
2012-4-8,69.3,69.1,68.8,18.5,18.4,18.1,15,15,15,30.21,30.21,2,1,2,0.00
2012-4-10,68.9,68.4,68.0,23.0,22.6,22.3,18,18,18,30.02,30.02,2,1,2,0.00
2012-4-14,50.0,44.8,39.8,36.7,34.3,30.1,80,67,56,29.87,29.78,8,3,8,0.09
2012-4-15,50.6,39.1,36.7,36.3,31.3,29.2,77,74,58,30.02,29.86,5,2,5,0.00
2012-4-23,60.8,60.2,59.8,41.8,41.7,41.6,51,50,49,30.24,30.24,1,0,1,0.00
2012-4-24,79.7,78.2,75.8,37.5,37.2,36.4,25,23,22,29.94,29.93,8,3,8,0.00
2012-5-1,56.9,54.3,49.5,14.9,14.4,13.1,25,21,18,29.90,29.89,5,1,5,0.00
2012-5-4,62.8,62.6,62.5,39.0,38.8,38.5,42,41,41,30.07,30.06,5,2,5,0.00
2012-5-12,63.0,59.9,56.3,34.1,32.5,30.9,38,36,31,30.33,30.30,16,8,16,0.00
2012-5-21,90.5,82.1,67.3,46.4,40.4,32.7,47,25,14,30.24,30.07,5,2,5,0.00
2012-5-27,60.1,57.4,52.9,33.8,33.0,32.1,46,40,35,29.98,29.93,7,2,7,0.00
2012-6-2,76.3,75.7,74.9,46.0,45.4,44.6,36,34,33,29.94,29.93,3,2,3,0.00
2012-6-3,88.6,88.0,86.8,37.5,37.1,35.6,18,17,16,30.04,30.03,6,5,6,0.00
2012-6-4,86.0,85.9,85.7,38.4,37.3,36.6,19,18,18,29.92,29.92,2,1,2,0.00
2012-6-6,75.8,65.8,49.3,29.2,25.5,22.2,36,23,15,30.12,30.05,6,2,6,0.00
2012-6-7,81.4,64.0,52.9,34.7,29.8,27.2,37,29,18,30.12,30.04,3,1,3,0.00
2012-6-8,92.9,69.9,39.6,43.3,30.1,23.3,53,28,11,30.05,29.78,13,4,13,0.00
2012-6-9,69.3,61.5,56.5,35.5,28.7,20.7,32,29,25,29.98,29.81,12,7,12,0.00
2012-6-10,71.5,67.9,58.3,32.4,27.9,25.0,31,23,19,30.16,30.01,15,6,15,0.00
2012-6-27,79.9,79.4,78.8,35.6,34.6,32.0,21,20,19,30.09,30.09,4,2,4,0.00
2012-7-14,90.7,84.4,73.4,54.8,52.1,48.4,51,34,24,30.12,30.07,20,7,20,0.00
2012-7-15,94.7,75.8,68.0,58.8,53.5,50.0,59,48,24,30.12,30.06,12,4,12,0.00
2012-7-30,96.3,85.3,66.1,54.7,49.5,41.4,54,31,21,30.30,30.16,19,4,19,0.00
2012-8-12,92.2,86.8,74.3,47.9,43.6,39.7,34,23,17,30.16,30.15,4,1,6,0.00
2012-8-24,92.9,81.4,64.4,32.1,27.4,22.4,25,15,11,30.11,29.95,7,2,7,0.00
2012-8-25,85.9,55.7,41.6,34.0,27.4,24.7,52,37,16,30.21,30.04,3,1,3,0.00
2012-8-26,89.1,78.1,64.1,44.8,40.5,37.3,41,28,18,30.20,30.14,8,2,8,0.00
2012-8-27,98.1,74.2,50.9,49.9,44.2,37.1,61,38,19,30.29,30.18,8,1,8,0.00
2012-8-28,68.0,59.0,54.4,49.8,43.3,41.6,64,56,46,30.31,30.23,2,0,2,0.00
2012-9-4,90.0,74.6,46.4,42.8,29.8,22.0,57,23,11,30.26,30.10,9,3,9,0.00
2012-9-5,53.6,45.3,39.4,26.3,24.8,23.9,54,45,32,30.28,30.25,1,0,1,0.00
2012-9-29,76.9,75.3,73.1,42.2,39.6,36.7,29,28,25,30.20,30.18,7,3,7,0.00
2012-9-30,82.4,70.5,57.8,41.4,38.7,37.1,46,33,23,30.36,30.20,5,1,5,0.00
2012-10-1,77.4,56.5,38.0,42.0,35.3,28.0,73,48,25,30.42,30.16,4,1,4,0.00
2012-10-2,84.6,59.0,38.5,42.2,30.1,22.2,67,40,11,30.15,29.95,8,2,8,0.00
2012-10-3,57.4,46.8,36.2,35.3,26.8,20.4,55,46,38,30.30,29.96,11,4,11,0.00
2012-10-10,53.6,53.4,53.3,29.9,29.6,29.5,40,40,40,30.04,30.04,0,0,0,0.00
2012-10-14,72.5,63.8,50.6,38.7,35.3,28.0,61,36,25,30.33,30.19,5,2,5,0.00
2012-10-15,62.3,61.1,59.6,31.9,31.4,31.0,34,33,32,30.04,30.04,1,0,1,0.00
2012-10-21,54.4,52.4,50.2,35.0,34.1,33.3,52,50,47,29.95,29.93,1,0,1,0.00
2012-11-10,23.0,23.0,22.9,17.2,17.0,16.9,78,78,77,29.94,29.93,3,1,3,0.00
2012-11-22,32.0,31.9,31.7,12.0,11.9,11.6,43,43,43,30.45,30.43,2,1,2,0.00
2012-11-23,39.4,39.3,39.2,20.3,19.8,19.5,46,45,45,30.32,30.32,1,1,1,0.00
2012-12-6,35.6,35.6,35.6,17.8,17.8,17.6,48,48,48,29.94,29.94,1,0,1,0.00
2012-12-9,22.5,21.8,21.2,11.7,11.4,11.1,65,64,63,30.25,30.22,0,0,0,0.00
2012-12-16,37.4,35.4,33.5,20.1,19.4,18.2,56,52,49,29.81,29.80,2,1,2,0.00